createdAt,value
2022-12-03T00:00:42.709Z,23.23
2022-12-03T00:03:09.748Z,24.50
2022-12-03T00:05:36.772Z,23.57
2022-12-03T00:08:04.430Z,25.63
2022-12-03T00:10:31.352Z,25.03
2022-12-03T00:12:58.283Z,23.97
2022-12-03T00:15:25.167Z,25.80
2022-12-03T00:17:52.035Z,23.87
2022-12-03T00:20:21.984Z,25.67
2022-12-03T00:22:49.333Z,33.17
2022-12-03T00:25:17.231Z,31.07
2022-12-03T00:27:44.213Z,28.97
2022-12-03T00:30:12.142Z,29.63
2022-12-03T00:32:39.156Z,25.30
2022-12-03T00:35:06.600Z,27.30
2022-12-03T00:37:35.187Z,28.80
2022-12-03T00:40:03.899Z,27.00
2022-12-03T00:42:30.759Z,27.57
2022-12-03T00:44:57.720Z,33.33
2022-12-03T00:47:24.585Z,30.00
2022-12-03T00:49:52.621Z,30.23
2022-12-03T00:52:19.617Z,27.77
2022-12-03T00:54:46.574Z,30.43
2022-12-03T00:57:13.525Z,33.03
2022-12-03T00:59:41.098Z,33.50
2022-12-03T01:02:08.133Z,29.10
2022-12-03T01:04:35.283Z,30.40
2022-12-03T01:07:02.262Z,29.30
2022-12-03T01:09:29.203Z,32.57
2022-12-03T01:11:56.406Z,30.73
2022-12-03T01:14:23.716Z,29.57
2022-12-03T01:16:50.627Z,31.07
2022-12-03T01:19:18.355Z,29.93
2022-12-03T01:21:50.202Z,28.50
2022-12-03T01:24:19.867Z,31.37
2022-12-03T01:26:47.013Z,29.77
2022-12-03T01:29:14.865Z,34.70
2022-12-03T01:32:00.235Z,30.83
2022-12-03T01:34:27.491Z,31.47
2022-12-03T01:36:54.415Z,28.37
2022-12-03T01:39:21.388Z,31.47
2022-12-03T01:41:49.922Z,30.30
2022-12-03T01:44:38.534Z,29.73
2022-12-03T01:47:08.192Z,30.37
2022-12-03T01:49:46.957Z,30.67
2022-12-03T01:52:17.623Z,29.97
2022-12-03T01:54:52.709Z,27.40
2022-12-03T01:57:27.699Z,31.90
2022-12-03T01:59:56.207Z,30.13
2022-12-03T02:02:29.536Z,32.40
2022-12-03T02:04:57.756Z,30.10
2022-12-03T02:07:32.482Z,35.83
2022-12-03T02:10:01.916Z,30.07
2022-12-03T02:12:36.431Z,29.57
2022-12-03T02:15:05.094Z,28.97
2022-12-03T02:17:32.441Z,29.80
2022-12-03T02:20:00.110Z,27.23
2022-12-03T02:22:35.022Z,32.10
2022-12-03T02:25:13.091Z,32.50
2022-12-03T02:27:40.974Z,30.00
2022-12-03T02:30:09.493Z,29.63
2022-12-03T02:32:37.951Z,29.53
2022-12-03T02:35:05.296Z,29.73
2022-12-03T02:37:37.297Z,29.57
2022-12-03T02:40:07.945Z,37.33
2022-12-03T02:42:35.331Z,30.10
2022-12-03T02:45:07.465Z,31.67
2022-12-03T02:47:39.502Z,27.57
2022-12-03T02:50:08.111Z,33.33
2022-12-03T02:52:35.647Z,32.17
2022-12-03T02:55:04.987Z,31.13
2022-12-03T02:57:32.458Z,31.30
2022-12-03T02:59:59.570Z,28.93
2022-12-03T03:02:28.413Z,32.57
2022-12-03T03:04:57.112Z,29.77
2022-12-03T03:07:24.838Z,31.73
2022-12-03T03:09:53.045Z,31.30
2022-12-03T03:12:20.123Z,30.73
2022-12-03T03:14:47.240Z,29.27
2022-12-03T03:17:14.297Z,27.60
2022-12-03T03:19:42.266Z,27.57
2022-12-03T03:22:11.526Z,34.60
2022-12-03T03:24:39.774Z,31.10
2022-12-03T03:27:09.587Z,28.80
2022-12-03T03:29:37.047Z,28.30
2022-12-03T03:32:05.597Z,30.23
2022-12-03T03:34:33.822Z,29.67
2022-12-03T03:37:00.983Z,38.93
2022-12-03T03:39:28.083Z,28.57
2022-12-03T03:41:55.581Z,32.60
2022-12-03T03:44:23.462Z,30.20
2022-12-03T03:46:50.819Z,38.83
2022-12-03T03:49:17.834Z,34.03
2022-12-03T03:51:44.930Z,33.40
2022-12-03T03:54:12.747Z,32.83
2022-12-03T03:56:40.361Z,34.97
2022-12-03T03:59:07.609Z,30.33
2022-12-03T04:01:34.967Z,34.43
2022-12-03T04:04:02.481Z,34.23
2022-12-03T04:06:30.767Z,35.60
2022-12-03T04:08:57.737Z,32.03
2022-12-03T04:11:43.327Z,37.50
2022-12-03T04:14:10.419Z,38.63
2022-12-03T04:16:37.399Z,33.03
2022-12-03T04:19:04.317Z,38.20
2022-12-03T04:21:49.780Z,35.57
2022-12-03T04:24:16.722Z,32.83
2022-12-03T04:27:02.104Z,36.80
2022-12-03T04:29:29.148Z,34.93
2022-12-03T04:32:14.584Z,32.90
2022-12-03T04:34:59.991Z,32.27
2022-12-03T04:37:27.195Z,35.20
2022-12-03T04:39:54.288Z,38.93
2022-12-03T04:42:21.229Z,30.17
2022-12-03T04:44:48.269Z,39.40
2022-12-03T04:47:20.682Z,36.30
2022-12-03T04:49:50.111Z,35.47
2022-12-03T04:52:19.623Z,39.77
2022-12-03T04:54:46.805Z,33.83
2022-12-03T04:57:13.880Z,43.37
2022-12-03T04:59:40.939Z,39.60
2022-12-03T05:02:08.279Z,41.37
2022-12-03T05:04:35.607Z,42.60
2022-12-03T05:07:03.995Z,41.47
2022-12-03T05:09:32.756Z,47.10
2022-12-03T05:11:59.781Z,43.97
2022-12-03T05:14:26.707Z,37.63
2022-12-03T05:16:53.773Z,41.67
2022-12-03T05:19:20.764Z,42.00
2022-12-03T05:21:49.247Z,38.87
2022-12-03T05:24:16.168Z,40.37
2022-12-03T05:26:43.090Z,41.40
2022-12-03T05:29:11.444Z,41.80
2022-12-03T05:31:38.377Z,36.33
2022-12-03T05:34:06.039Z,44.53
2022-12-03T05:36:33.002Z,42.97
2022-12-03T05:39:00.275Z,41.33
2022-12-03T05:41:47.648Z,38.17
2022-12-03T05:44:20.147Z,40.70
2022-12-03T05:46:47.528Z,46.57
2022-12-03T05:49:17.014Z,36.50
2022-12-03T05:51:43.997Z,43.87
2022-12-03T05:54:10.957Z,42.17
2022-12-03T05:56:37.944Z,41.53
2022-12-03T05:59:04.925Z,38.63
2022-12-03T06:01:32.246Z,43.47
2022-12-03T06:03:59.177Z,33.43
2022-12-03T06:06:26.193Z,36.70
2022-12-03T06:08:53.138Z,39.23
2022-12-03T06:11:20.140Z,42.43
2022-12-03T06:13:47.086Z,38.53
2022-12-03T06:16:14.069Z,35.80
2022-12-03T06:18:41.065Z,39.60
2022-12-03T06:21:08.153Z,39.73
2022-12-03T06:23:35.142Z,42.80
2022-12-03T06:26:02.082Z,42.17
2022-12-03T06:28:29.175Z,40.30
2022-12-03T06:30:56.803Z,43.23
2022-12-03T06:33:23.770Z,38.80
2022-12-03T06:35:50.692Z,42.50
2022-12-03T06:38:17.573Z,42.47
2022-12-03T06:40:44.655Z,41.33
2022-12-03T06:43:11.525Z,41.87
2022-12-03T06:45:42.047Z,40.10
2022-12-03T06:48:11.553Z,43.03
2022-12-03T06:50:38.635Z,44.33
2022-12-03T06:53:05.635Z,42.77
2022-12-03T06:55:32.971Z,51.27
2022-12-03T06:58:00.128Z,50.17
2022-12-03T07:00:27.143Z,41.20
2022-12-03T07:02:54.065Z,45.37
2022-12-03T07:05:21.097Z,41.83
2022-12-03T07:07:52.317Z,44.70
2022-12-03T07:10:19.717Z,44.80
2022-12-03T07:12:46.594Z,41.50
2022-12-03T07:15:13.827Z,46.30
2022-12-03T07:17:40.824Z,46.53
2022-12-03T07:20:09.003Z,43.20
2022-12-03T07:22:36.182Z,41.53
2022-12-03T07:25:03.640Z,45.20
2022-12-03T07:27:30.591Z,40.03
2022-12-03T07:29:57.588Z,39.67
2022-12-03T07:32:24.592Z,43.77
2022-12-03T07:34:51.724Z,43.43
2022-12-03T07:37:23.115Z,42.63
2022-12-03T07:40:06.750Z,47.07
2022-12-03T07:42:33.691Z,41.83
2022-12-03T07:45:00.677Z,44.83
2022-12-03T07:47:27.621Z,43.60
2022-12-03T07:49:54.581Z,48.20
2022-12-03T07:52:21.749Z,39.63
2022-12-03T07:54:48.742Z,40.97
2022-12-03T07:57:15.684Z,40.73
2022-12-03T07:59:42.612Z,43.60
2022-12-03T08:02:09.668Z,39.57
2022-12-03T08:04:36.718Z,40.93
2022-12-03T08:07:03.628Z,42.10
2022-12-03T08:09:31.672Z,44.57
2022-12-03T08:12:02.817Z,45.80
2022-12-03T08:14:33.165Z,38.87
2022-12-03T08:17:00.036Z,39.33
2022-12-03T08:19:27.249Z,43.70
2022-12-03T08:21:59.536Z,40.07
2022-12-03T08:24:29.202Z,40.20
2022-12-03T08:26:57.576Z,41.43
2022-12-03T08:29:25.105Z,38.57
2022-12-03T08:31:57.260Z,40.17
2022-12-03T08:34:32.353Z,41.33
2022-12-03T08:37:05.957Z,39.70
2022-12-03T08:39:34.396Z,38.73
2022-12-03T08:42:31.089Z,42.23
2022-12-03T08:45:28.910Z,34.60
2022-12-03T08:48:00.482Z,45.90
2022-12-03T08:50:30.721Z,46.00
2022-12-03T08:53:25.506Z,41.90
2022-12-03T08:55:54.348Z,39.37
2022-12-03T08:58:34.070Z,43.63
2022-12-03T09:01:06.613Z,38.37
2022-12-03T09:03:33.991Z,42.43
2022-12-03T09:06:01.657Z,41.03
2022-12-03T09:08:29.012Z,37.63
2022-12-03T09:10:56.205Z,41.30
2022-12-03T09:13:23.241Z,39.53
2022-12-03T09:15:50.238Z,42.73
2022-12-03T09:18:17.216Z,39.70
2022-12-03T09:20:44.413Z,39.53
2022-12-03T09:23:11.353Z,36.90
2022-12-03T09:25:38.362Z,40.83
2022-12-03T09:28:05.621Z,40.40
2022-12-03T09:30:32.752Z,43.10
2022-12-03T09:33:00.228Z,38.20
2022-12-03T09:35:28.349Z,39.40
2022-12-03T09:37:55.299Z,35.83
2022-12-03T09:40:23.153Z,41.43
2022-12-03T09:42:51.353Z,42.73
2022-12-03T09:45:19.451Z,39.67
2022-12-03T09:47:50.359Z,40.37
2022-12-03T09:50:22.609Z,41.27
2022-12-03T09:52:51.018Z,39.83
2022-12-03T09:55:23.098Z,43.67
2022-12-03T09:57:54.739Z,37.20
2022-12-03T10:00:25.658Z,42.00
2022-12-03T10:02:56.447Z,40.03
2022-12-03T10:05:24.174Z,37.47
2022-12-03T10:07:52.578Z,38.40
2022-12-03T10:10:25.164Z,40.67
2022-12-03T10:12:53.021Z,40.83
2022-12-03T10:15:23.286Z,35.13
2022-12-03T10:17:52.777Z,43.90
2022-12-03T10:20:22.281Z,39.87
2022-12-03T10:22:49.905Z,37.87
2022-12-03T10:25:19.740Z,40.10
2022-12-03T10:28:01.382Z,41.73
2022-12-03T10:30:29.460Z,42.80
2022-12-03T10:32:58.561Z,40.43
2022-12-03T10:35:41.279Z,40.10
2022-12-03T10:38:17.328Z,41.00
2022-12-03T10:40:45.285Z,39.80
2022-12-03T10:43:20.487Z,34.87
2022-12-03T10:46:10.218Z,38.43
2022-12-03T10:48:37.822Z,35.87
2022-12-03T10:51:09.394Z,39.80
2022-12-03T10:53:38.642Z,37.53
2022-12-03T10:56:07.922Z,40.00
2022-12-03T10:58:36.830Z,35.93
2022-12-03T11:01:14.739Z,38.10
2022-12-03T11:03:43.074Z,38.93
2022-12-03T11:06:18.963Z,36.80
2022-12-03T11:08:56.215Z,39.47
2022-12-03T11:11:30.139Z,40.47
2022-12-03T11:14:02.476Z,40.63
2022-12-03T11:16:41.943Z,39.10
2022-12-03T11:19:17.806Z,39.63
2022-12-03T11:22:03.525Z,31.77
2022-12-03T11:24:32.179Z,44.10
2022-12-03T11:26:59.082Z,37.57
2022-12-03T11:29:48.122Z,32.30
2022-12-03T11:32:40.470Z,33.90
2022-12-03T11:35:28.236Z,33.47
2022-12-03T11:37:55.322Z,35.30
2022-12-03T11:40:27.643Z,32.33
2022-12-03T11:42:54.675Z,35.70
2022-12-03T11:45:36.891Z,40.27
2022-12-03T11:48:15.084Z,30.27
2022-12-03T11:50:49.989Z,33.60
2022-12-03T11:53:31.196Z,36.77
2022-12-03T11:56:11.044Z,35.60
2022-12-03T11:58:42.364Z,38.17
2022-12-03T12:01:09.438Z,35.77
2022-12-03T12:03:56.714Z,29.10
2022-12-03T12:06:24.226Z,29.43
2022-12-03T12:08:51.212Z,33.07
2022-12-03T12:11:19.368Z,31.67
2022-12-03T12:13:59.239Z,32.20
2022-12-03T12:16:46.253Z,29.90
2022-12-03T12:19:37.111Z,32.20
2022-12-03T12:22:18.023Z,33.37
2022-12-03T12:24:48.610Z,33.23
2022-12-03T12:27:21.756Z,30.70
2022-12-03T12:30:01.328Z,35.67
2022-12-03T12:32:31.171Z,31.07
2022-12-03T12:35:15.294Z,26.70
2022-12-03T12:37:56.851Z,35.67
2022-12-03T12:40:27.836Z,34.37
2022-12-03T12:43:19.012Z,36.97
2022-12-03T12:45:51.539Z,43.10
2022-12-03T12:48:26.156Z,41.57
2022-12-03T12:51:08.119Z,32.77
2022-12-03T12:53:36.648Z,33.93
2022-12-03T12:56:27.920Z,32.67
2022-12-03T12:58:59.422Z,32.50
2022-12-03T13:01:31.013Z,29.93
2022-12-03T13:03:59.593Z,31.03
2022-12-03T13:06:31.252Z,34.83
2022-12-03T13:09:19.537Z,29.47
2022-12-03T13:11:51.705Z,35.83
2022-12-03T13:14:23.533Z,28.77
2022-12-03T13:16:52.861Z,31.17
2022-12-03T13:19:22.823Z,29.23
2022-12-03T13:21:51.158Z,28.60
2022-12-03T13:24:33.441Z,32.90
2022-12-03T13:27:08.890Z,35.43
2022-12-03T13:29:35.964Z,30.37
2022-12-03T13:32:11.662Z,29.07
2022-12-03T13:34:38.628Z,30.40
2022-12-03T13:37:21.446Z,29.50
2022-12-03T13:39:53.545Z,27.90
2022-12-03T13:42:39.036Z,32.27
2022-12-03T13:45:15.385Z,28.43
2022-12-03T13:47:55.574Z,30.40
2022-12-03T13:50:33.270Z,30.30
2022-12-03T13:53:26.677Z,32.63
2022-12-03T13:56:24.772Z,32.70
2022-12-03T13:58:52.387Z,28.10
2022-12-03T14:01:19.511Z,29.30
2022-12-03T14:03:46.782Z,31.27
2022-12-03T14:06:14.451Z,26.37
2022-12-03T14:08:41.452Z,28.27
2022-12-03T14:11:08.958Z,26.70
2022-12-03T14:13:36.798Z,30.30
2022-12-03T14:16:04.056Z,30.67
2022-12-03T14:18:31.333Z,29.07
2022-12-03T14:20:58.391Z,30.50
2022-12-03T14:23:25.971Z,29.27
2022-12-03T14:25:53.281Z,28.40
2022-12-03T14:28:20.283Z,24.73
2022-12-03T14:30:47.325Z,30.77
2022-12-03T14:33:14.388Z,28.23
2022-12-03T14:35:41.460Z,29.30
2022-12-03T14:38:08.577Z,24.67
2022-12-03T14:40:35.524Z,24.27
2022-12-03T14:43:03.368Z,25.93
2022-12-03T14:45:30.665Z,24.50
2022-12-03T14:47:57.697Z,28.37
2022-12-03T14:50:25.755Z,26.57
2022-12-03T14:52:52.889Z,26.23
2022-12-03T14:55:20.008Z,27.27
2022-12-03T14:57:49.425Z,30.03
2022-12-03T15:00:17.132Z,31.50
2022-12-03T15:02:44.122Z,29.57
2022-12-03T15:05:11.150Z,27.73
2022-12-03T15:07:39.444Z,26.10
2022-12-03T15:10:08.358Z,25.13
2022-12-03T15:12:35.945Z,27.20
2022-12-03T15:15:07.155Z,21.30
2022-12-03T15:17:35.479Z,27.37
2022-12-03T15:20:02.452Z,29.77
2022-12-03T15:22:29.440Z,33.47
2022-12-03T15:24:56.511Z,28.43
2022-12-03T15:27:23.460Z,32.27
2022-12-03T15:29:52.099Z,32.97
2022-12-03T15:32:20.301Z,32.17
2022-12-03T15:34:47.202Z,28.67
2022-12-03T15:37:14.921Z,28.13
2022-12-03T15:39:48.164Z,27.20
2022-12-03T15:42:15.710Z,33.73
2022-12-03T15:44:42.606Z,29.50
2022-12-03T15:47:09.633Z,30.10
2022-12-03T15:49:38.005Z,29.93
2022-12-03T15:52:06.024Z,30.10
2022-12-03T15:54:32.951Z,35.07
2022-12-03T15:57:00.118Z,27.27
2022-12-03T15:59:27.091Z,31.47
2022-12-03T16:01:54.313Z,29.50
2022-12-03T16:04:21.419Z,31.07
2022-12-03T16:06:48.460Z,33.90
2022-12-03T16:09:15.453Z,32.17
2022-12-03T16:11:42.442Z,31.13
2022-12-03T16:14:09.434Z,36.40
2022-12-03T16:16:36.524Z,36.20
2022-12-03T16:19:03.525Z,32.53
2022-12-03T16:21:30.544Z,39.93
2022-12-03T16:23:58.335Z,35.63
2022-12-03T16:26:25.324Z,32.90
2022-12-03T16:28:52.491Z,34.93
2022-12-03T16:31:19.561Z,37.73
2022-12-03T16:33:46.666Z,32.43
2022-12-03T16:36:15.079Z,36.00
2022-12-03T16:38:42.737Z,36.73
2022-12-03T16:41:09.929Z,32.47
2022-12-03T16:43:38.780Z,35.33
2022-12-03T16:46:18.777Z,32.70
2022-12-03T16:48:46.584Z,37.53
2022-12-03T16:51:13.847Z,31.63
2022-12-03T16:53:40.840Z,39.17
2022-12-03T16:56:08.319Z,35.77
2022-12-03T16:58:35.313Z,40.23
2022-12-03T17:01:02.276Z,35.93
2022-12-03T17:03:33.885Z,37.13
2022-12-03T17:06:02.248Z,37.43
2022-12-03T17:08:32.192Z,36.53
2022-12-03T17:10:59.308Z,40.93
2022-12-03T17:13:26.348Z,37.93
2022-12-03T17:15:53.455Z,35.57
2022-12-03T17:18:21.380Z,33.60
2022-12-03T17:20:48.365Z,38.07
2022-12-03T17:23:17.590Z,40.53
2022-12-03T17:25:44.561Z,39.27
2022-12-03T17:28:11.547Z,37.77
2022-12-03T17:30:38.444Z,40.33
2022-12-03T17:33:05.496Z,45.03
2022-12-03T17:35:32.628Z,45.67
2022-12-03T17:37:59.676Z,39.63
2022-12-03T17:40:26.697Z,39.73
2022-12-03T17:42:53.739Z,43.87
2022-12-03T17:45:20.796Z,39.20
2022-12-03T17:47:47.722Z,42.37
2022-12-03T17:50:14.774Z,41.87
2022-12-03T17:52:43.217Z,41.80
2022-12-03T17:55:14.259Z,36.47
2022-12-03T17:57:44.962Z,40.73
2022-12-03T18:00:12.447Z,42.30
2022-12-03T18:02:39.381Z,37.13
2022-12-03T18:05:06.683Z,44.50
2022-12-03T18:07:33.881Z,39.47
2022-12-03T18:10:00.994Z,40.07
2022-12-03T18:12:28.002Z,46.60
2022-12-03T18:14:54.989Z,43.27
2022-12-03T18:17:22.010Z,39.97
2022-12-03T18:19:48.964Z,43.30
2022-12-03T18:22:16.743Z,47.63
2022-12-03T18:24:46.124Z,39.93
2022-12-03T18:27:15.454Z,37.57
2022-12-03T18:29:42.390Z,44.07
2022-12-03T18:32:27.566Z,49.10
2022-12-03T18:34:56.163Z,44.47
2022-12-03T18:37:26.891Z,52.87
2022-12-03T18:39:57.470Z,41.57
2022-12-03T18:42:25.011Z,41.47
2022-12-03T18:44:57.523Z,44.43
2022-12-03T18:47:27.628Z,52.60
2022-12-03T18:49:55.467Z,45.33
2022-12-03T18:52:25.046Z,44.40
2022-12-03T18:54:52.799Z,43.03
2022-12-03T18:57:19.869Z,47.17
2022-12-03T18:59:47.117Z,47.67
2022-12-03T19:05:08.452Z,42.67
2022-12-03T19:07:35.571Z,45.87
2022-12-03T19:10:04.443Z,48.17
2022-12-03T19:12:31.746Z,44.87
2022-12-03T19:14:59.122Z,39.83
2022-12-03T19:17:27.329Z,41.60
2022-12-03T19:19:55.311Z,42.10
2022-12-03T19:22:23.483Z,43.63
2022-12-03T19:24:50.585Z,42.63
2022-12-03T19:27:17.960Z,44.40
2022-12-03T19:29:48.556Z,39.20
2022-12-03T19:32:15.788Z,42.73
2022-12-03T19:34:42.801Z,41.70
2022-12-03T19:37:10.945Z,42.63
2022-12-03T19:39:38.185Z,39.57
2022-12-03T19:42:05.309Z,45.23
2022-12-03T19:44:32.386Z,44.47
2022-12-03T19:46:59.391Z,48.27
2022-12-03T19:49:26.544Z,42.93
2022-12-03T19:51:54.134Z,49.70
2022-12-03T19:54:23.738Z,42.30
2022-12-03T19:56:51.016Z,44.00
2022-12-03T19:59:17.992Z,44.93
2022-12-03T20:01:45.154Z,49.00
2022-12-03T20:04:13.001Z,47.33
2022-12-03T20:06:40.077Z,47.93
2022-12-03T20:09:12.869Z,41.80
2022-12-03T20:11:41.478Z,44.70
2022-12-03T20:14:16.531Z,43.00
2022-12-03T20:16:45.559Z,44.23
2022-12-03T20:19:15.145Z,43.27
2022-12-03T20:21:45.749Z,48.07
2022-12-03T20:24:18.037Z,45.03
2022-12-03T20:26:45.148Z,52.53
2022-12-03T20:29:12.343Z,39.73
2022-12-03T20:31:39.579Z,45.97
2022-12-03T20:34:07.659Z,46.60
2022-12-03T20:36:36.544Z,52.30
2022-12-03T20:39:07.476Z,51.53
2022-12-03T20:41:36.049Z,47.17
2022-12-03T20:44:03.452Z,50.47
2022-12-03T20:46:31.602Z,48.47
2022-12-03T20:48:59.229Z,47.10
2022-12-03T20:51:30.636Z,48.77
2022-12-03T20:54:00.082Z,48.63
2022-12-03T20:56:31.331Z,48.43
2022-12-03T20:59:07.122Z,48.23
2022-12-03T21:01:35.906Z,48.07
2022-12-03T21:04:04.726Z,49.63
2022-12-03T21:06:35.805Z,50.63
2022-12-03T21:09:05.679Z,46.50
2022-12-03T21:11:34.016Z,52.47
2022-12-03T21:14:01.074Z,50.47
2022-12-03T21:19:22.922Z,46.50
2022-12-03T21:21:50.340Z,50.20
2022-12-03T21:24:17.468Z,50.50
2022-12-03T21:26:44.542Z,53.67
2022-12-03T21:29:11.565Z,51.83
2022-12-03T21:31:39.974Z,51.90
2022-12-03T21:34:08.640Z,55.13
2022-12-03T21:36:35.724Z,51.23
2022-12-03T21:39:03.297Z,48.73
2022-12-03T21:41:30.276Z,48.63
2022-12-03T21:43:59.014Z,51.67
2022-12-03T21:47:10.001Z,46.47
2022-12-03T21:49:14.460Z,45.87
2022-12-03T21:51:41.437Z,51.33
2022-12-03T21:54:08.439Z,52.87
2022-12-03T21:56:35.441Z,51.40
2022-12-03T21:59:02.493Z,48.93
2022-12-03T22:01:29.777Z,54.43
2022-12-03T22:03:57.131Z,53.17
2022-12-03T22:06:24.279Z,51.00
2022-12-03T22:08:51.210Z,49.67
2022-12-03T22:11:21.137Z,55.87
2022-12-03T22:13:48.468Z,52.53
2022-12-03T22:16:18.394Z,48.77
2022-12-03T22:18:45.613Z,46.97
2022-12-03T22:21:19.006Z,51.83
2022-12-03T22:23:46.427Z,52.93
2022-12-03T22:26:16.400Z,53.90
2022-12-03T22:28:45.014Z,55.17
2022-12-03T22:31:12.737Z,48.17
2022-12-03T22:33:40.213Z,46.80
2022-12-03T22:36:16.209Z,54.07
2022-12-03T22:38:46.874Z,47.10
2022-12-03T22:41:14.720Z,47.97
2022-12-03T22:43:44.141Z,49.03
2022-12-03T22:46:14.407Z,49.93
2022-12-03T22:48:43.244Z,50.33
2022-12-03T22:51:18.542Z,51.60
2022-12-03T22:53:45.781Z,50.73
2022-12-03T22:56:13.266Z,49.70
2022-12-03T22:58:41.160Z,50.40
2022-12-03T23:01:08.591Z,56.57
2022-12-03T23:03:37.945Z,50.17
2022-12-03T23:06:12.258Z,55.03
2022-12-03T23:08:40.566Z,50.70
2022-12-03T23:11:08.113Z,51.90
2022-12-03T23:13:37.646Z,51.77
2022-12-03T23:16:05.558Z,48.33
2022-12-03T23:18:33.198Z,52.60
2022-12-03T23:21:00.525Z,58.00
2022-12-03T23:23:28.323Z,52.20
2022-12-03T23:26:03.371Z,53.23
2022-12-03T23:28:32.867Z,55.53
2022-12-03T23:31:00.460Z,52.90
2022-12-03T23:33:28.406Z,54.10
2022-12-03T23:35:55.441Z,58.53
2022-12-03T23:38:23.261Z,50.23
2022-12-03T23:40:52.934Z,55.80
2022-12-03T23:43:19.879Z,53.83
2022-12-03T23:45:46.916Z,50.60
2022-12-03T23:48:14.107Z,52.87
2022-12-03T23:50:42.871Z,48.53
2022-12-03T23:53:09.856Z,54.23
2022-12-03T23:55:40.165Z,53.33
2022-12-03T23:58:07.332Z,47.03
